sensor_id;sensor_type;location;lat;lon;timestamp;P1;durP1;ratioP1;P2;durP2;ratioP2
21822;SDS011;11074;48.596;9.238;2022-12-13T00:01:50;22.52;;;11.65;;
21822;SDS011;11074;48.596;9.238;2022-12-13T00:04:17;21.00;;;11.23;;
21822;SDS011;11074;48.596;9.238;2022-12-13T00:06:45;21.20;;;11.10;;
21822;SDS011;11074;48.596;9.238;2022-12-13T00:09:12;21.42;;;11.02;;
21822;SDS011;11074;48.596;9.238;2022-12-13T00:11:40;21.80;;;11.73;;
21822;SDS011;11074;48.596;9.238;2022-12-13T00:14:07;20.55;;;11.40;;
21822;SDS011;11074;48.596;9.238;2022-12-13T00:16:32;22.73;;;10.95;;
21822;SDS011;11074;48.596;9.238;2022-12-13T00:18:58;21.40;;;12.07;;
21822;SDS011;11074;48.596;9.238;2022-12-13T00:21:26;20.85;;;11.10;;
21822;SDS011;11074;48.596;9.238;2022-12-13T00:23:55;22.63;;;12.18;;
21822;SDS011;11074;48.596;9.238;2022-12-13T00:26:22;23.17;;;11.93;;
21822;SDS011;11074;48.596;9.238;2022-12-13T00:28:51;24.38;;;12.30;;
21822;SDS011;11074;48.596;9.238;2022-12-13T00:31:18;20.50;;;11.07;;
21822;SDS011;11074;48.596;9.238;2022-12-13T00:33:46;22.23;;;12.20;;
21822;SDS011;11074;48.596;9.238;2022-12-13T00:36:13;21.67;;;12.43;;
21822;SDS011;11074;48.596;9.238;2022-12-13T00:38:40;22.10;;;11.88;;
21822;SDS011;11074;48.596;9.238;2022-12-13T00:41:13;21.60;;;11.70;;
21822;SDS011;11074;48.596;9.238;2022-12-13T00:43:42;24.15;;;11.70;;
21822;SDS011;11074;48.596;9.238;2022-12-13T00:46:16;19.48;;;11.18;;
21822;SDS011;11074;48.596;9.238;2022-12-13T00:48:49;23.75;;;11.93;;
21822;SDS011;11074;48.596;9.238;2022-12-13T00:51:18;21.02;;;11.52;;
21822;SDS011;11074;48.596;9.238;2022-12-13T00:53:45;21.92;;;11.35;;
21822;SDS011;11074;48.596;9.238;2022-12-13T00:56:12;18.52;;;10.63;;
21822;SDS011;11074;48.596;9.238;2022-12-13T00:58:47;21.52;;;10.95;;
21822;SDS011;11074;48.596;9.238;2022-12-13T01:01:14;21.38;;;11.35;;
21822;SDS011;11074;48.596;9.238;2022-12-13T01:03:42;22.75;;;11.90;;
21822;SDS011;11074;48.596;9.238;2022-12-13T01:06:11;21.75;;;11.65;;
21822;SDS011;11074;48.596;9.238;2022-12-13T01:08:48;21.77;;;10.93;;
21822;SDS011;11074;48.596;9.238;2022-12-13T01:11:16;22.55;;;11.05;;
21822;SDS011;11074;48.596;9.238;2022-12-13T01:13:42;21.02;;;11.25;;
21822;SDS011;11074;48.596;9.238;2022-12-13T01:16:09;19.73;;;10.98;;
21822;SDS011;11074;48.596;9.238;2022-12-13T01:18:36;25.52;;;10.43;;
21822;SDS011;11074;48.596;9.238;2022-12-13T01:21:09;23.58;;;10.93;;
21822;SDS011;11074;48.596;9.238;2022-12-13T01:23:36;23.20;;;11.88;;
21822;SDS011;11074;48.596;9.238;2022-12-13T01:26:06;21.83;;;11.88;;
21822;SDS011;11074;48.596;9.238;2022-12-13T01:28:39;25.23;;;11.77;;
21822;SDS011;11074;48.596;9.238;2022-12-13T01:31:07;19.27;;;11.48;;
21822;SDS011;11074;48.596;9.238;2022-12-13T01:33:39;22.10;;;12.00;;
21822;SDS011;11074;48.596;9.238;2022-12-13T01:36:09;21.58;;;11.48;;
21822;SDS011;11074;48.596;9.238;2022-12-13T01:38:41;22.63;;;11.98;;
21822;SDS011;11074;48.596;9.238;2022-12-13T01:41:09;23.55;;;10.93;;
21822;SDS011;11074;48.596;9.238;2022-12-13T01:46:12;21.77;;;11.55;;
21822;SDS011;11074;48.596;9.238;2022-12-13T01:48:43;22.30;;;11.23;;
21822;SDS011;11074;48.596;9.238;2022-12-13T01:51:23;23.83;;;12.05;;
21822;SDS011;11074;48.596;9.238;2022-12-13T01:54:07;21.13;;;11.93;;
21822;SDS011;11074;48.596;9.238;2022-12-13T01:56:40;26.45;;;12.48;;
21822;SDS011;11074;48.596;9.238;2022-12-13T01:59:12;24.02;;;12.15;;
21822;SDS011;11074;48.596;9.238;2022-12-13T02:01:43;23.10;;;12.05;;
21822;SDS011;11074;48.596;9.238;2022-12-13T02:04:10;23.52;;;11.68;;
21822;SDS011;11074;48.596;9.238;2022-12-13T02:06:40;23.85;;;11.65;;
21822;SDS011;11074;48.596;9.238;2022-12-13T02:09:09;23.52;;;11.30;;
21822;SDS011;11074;48.596;9.238;2022-12-13T02:11:37;20.85;;;11.70;;
21822;SDS011;11074;48.596;9.238;2022-12-13T02:14:07;21.13;;;11.68;;
21822;SDS011;11074;48.596;9.238;2022-12-13T02:34:46;23.42;;;11.73;;
21822;SDS011;11074;48.596;9.238;2022-12-13T02:37:49;21.02;;;11.30;;
21822;SDS011;11074;48.596;9.238;2022-12-13T02:40:26;23.15;;;11.70;;
21822;SDS011;11074;48.596;9.238;2022-12-13T02:43:13;20.17;;;10.50;;
21822;SDS011;11074;48.596;9.238;2022-12-13T02:45:44;21.38;;;10.98;;
21822;SDS011;11074;48.596;9.238;2022-12-13T02:48:16;21.73;;;11.25;;
21822;SDS011;11074;48.596;9.238;2022-12-13T02:50:49;20.52;;;11.80;;
21822;SDS011;11074;48.596;9.238;2022-12-13T02:53:17;21.95;;;11.68;;
21822;SDS011;11074;48.596;9.238;2022-12-13T02:55:48;22.85;;;10.93;;
21822;SDS011;11074;48.596;9.238;2022-12-13T02:58:18;18.20;;;10.70;;
21822;SDS011;11074;48.596;9.238;2022-12-13T03:04:12;21.00;;;11.45;;
21822;SDS011;11074;48.596;9.238;2022-12-13T03:07:26;18.52;;;10.30;;
21822;SDS011;11074;48.596;9.238;2022-12-13T03:10:09;24.13;;;11.80;;
21822;SDS011;11074;48.596;9.238;2022-12-13T03:12:53;23.02;;;11.63;;
21822;SDS011;11074;48.596;9.238;2022-12-13T03:15:56;21.27;;;11.05;;
21822;SDS011;11074;48.596;9.238;2022-12-13T03:18:29;21.80;;;11.55;;
21822;SDS011;11074;48.596;9.238;2022-12-13T03:20:59;22.38;;;12.00;;
21822;SDS011;11074;48.596;9.238;2022-12-13T03:23:28;22.85;;;11.82;;
21822;SDS011;11074;48.596;9.238;2022-12-13T03:25:56;18.70;;;11.38;;
21822;SDS011;11074;48.596;9.238;2022-12-13T03:28:28;20.60;;;11.18;;
21822;SDS011;11074;48.596;9.238;2022-12-13T03:30:54;19.85;;;10.85;;
21822;SDS011;11074;48.596;9.238;2022-12-13T03:33:20;21.00;;;11.35;;
21822;SDS011;11074;48.596;9.238;2022-12-13T03:35:46;21.27;;;10.98;;
21822;SDS011;11074;48.596;9.238;2022-12-13T03:38:13;20.08;;;10.65;;
21822;SDS011;11074;48.596;9.238;2022-12-13T03:40:41;22.88;;;11.68;;
21822;SDS011;11074;48.596;9.238;2022-12-13T03:43:08;21.50;;;11.38;;
21822;SDS011;11074;48.596;9.238;2022-12-13T03:45:33;22.08;;;11.95;;
21822;SDS011;11074;48.596;9.238;2022-12-13T03:47:59;18.58;;;11.02;;
21822;SDS011;11074;48.596;9.238;2022-12-13T03:50:25;22.10;;;12.35;;
21822;SDS011;11074;48.596;9.238;2022-12-13T03:52:56;22.10;;;12.15;;
21822;SDS011;11074;48.596;9.238;2022-12-13T03:55:26;20.48;;;11.50;;
21822;SDS011;11074;48.596;9.238;2022-12-13T03:57:52;21.60;;;12.38;;
21822;SDS011;11074;48.596;9.238;2022-12-13T04:00:19;22.70;;;11.70;;
21822;SDS011;11074;48.596;9.238;2022-12-13T04:02:45;23.67;;;11.98;;
21822;SDS011;11074;48.596;9.238;2022-12-13T04:05:11;22.98;;;12.38;;
21822;SDS011;11074;48.596;9.238;2022-12-13T04:07:37;23.63;;;12.10;;
21822;SDS011;11074;48.596;9.238;2022-12-13T04:10:02;23.45;;;12.05;;
21822;SDS011;11074;48.596;9.238;2022-12-13T04:12:29;24.33;;;11.57;;
21822;SDS011;11074;48.596;9.238;2022-12-13T04:15:13;22.27;;;11.15;;
21822;SDS011;11074;48.596;9.238;2022-12-13T04:17:38;22.45;;;11.95;;
21822;SDS011;11074;48.596;9.238;2022-12-13T04:20:04;20.88;;;10.85;;
21822;SDS011;11074;48.596;9.238;2022-12-13T04:22:31;24.95;;;11.00;;
21822;SDS011;11074;48.596;9.238;2022-12-13T04:24:56;23.75;;;11.85;;
21822;SDS011;11074;48.596;9.238;2022-12-13T04:27:22;23.73;;;11.25;;
21822;SDS011;11074;48.596;9.238;2022-12-13T04:29:47;22.85;;;11.55;;
21822;SDS011;11074;48.596;9.238;2022-12-13T04:32:13;23.15;;;12.07;;
21822;SDS011;11074;48.596;9.238;2022-12-13T04:34:39;23.77;;;11.52;;
21822;SDS011;11074;48.596;9.238;2022-12-13T04:37:05;20.10;;;11.38;;
21822;SDS011;11074;48.596;9.238;2022-12-13T04:39:30;23.92;;;11.52;;
21822;SDS011;11074;48.596;9.238;2022-12-13T04:41:56;23.02;;;12.07;;
21822;SDS011;11074;48.596;9.238;2022-12-13T04:44:22;18.08;;;10.52;;
21822;SDS011;11074;48.596;9.238;2022-12-13T04:46:47;20.23;;;11.45;;
21822;SDS011;11074;48.596;9.238;2022-12-13T04:49:13;26.05;;;12.05;;
21822;SDS011;11074;48.596;9.238;2022-12-13T04:51:39;20.08;;;10.50;;
21822;SDS011;11074;48.596;9.238;2022-12-13T04:54:04;22.63;;;12.13;;
21822;SDS011;11074;48.596;9.238;2022-12-13T04:56:30;20.60;;;11.00;;
21822;SDS011;11074;48.596;9.238;2022-12-13T04:58:56;21.67;;;11.27;;
21822;SDS011;11074;48.596;9.238;2022-12-13T05:01:21;23.15;;;11.02;;
21822;SDS011;11074;48.596;9.238;2022-12-13T05:03:47;22.58;;;11.75;;
21822;SDS011;11074;48.596;9.238;2022-12-13T05:06:13;21.75;;;10.98;;
21822;SDS011;11074;48.596;9.238;2022-12-13T05:08:39;21.15;;;11.10;;
21822;SDS011;11074;48.596;9.238;2022-12-13T05:11:06;22.88;;;11.48;;
21822;SDS011;11074;48.596;9.238;2022-12-13T05:13:34;21.10;;;11.45;;
21822;SDS011;11074;48.596;9.238;2022-12-13T05:16:00;20.00;;;10.13;;
21822;SDS011;11074;48.596;9.238;2022-12-13T05:18:30;24.35;;;11.45;;
21822;SDS011;11074;48.596;9.238;2022-12-13T05:21:05;22.75;;;11.40;;
21822;SDS011;11074;48.596;9.238;2022-12-13T05:23:33;21.23;;;11.18;;
21822;SDS011;11074;48.596;9.238;2022-12-13T05:25:59;48.72;;;17.88;;
21822;SDS011;11074;48.596;9.238;2022-12-13T05:28:25;128.88;;;41.50;;
21822;SDS011;11074;48.596;9.238;2022-12-13T05:30:53;119.00;;;38.67;;
21822;SDS011;11074;48.596;9.238;2022-12-13T05:33:23;75.35;;;27.10;;
21822;SDS011;11074;48.596;9.238;2022-12-13T05:35:50;51.28;;;18.77;;
21822;SDS011;11074;48.596;9.238;2022-12-13T05:38:16;29.63;;;14.43;;
21822;SDS011;11074;48.596;9.238;2022-12-13T05:40:42;26.83;;;13.77;;
21822;SDS011;11074;48.596;9.238;2022-12-13T05:43:09;22.38;;;12.80;;
21822;SDS011;11074;48.596;9.238;2022-12-13T05:45:36;22.17;;;10.88;;
21822;SDS011;11074;48.596;9.238;2022-12-13T05:48:02;27.55;;;11.23;;
21822;SDS011;11074;48.596;9.238;2022-12-13T05:50:28;20.33;;;11.32;;
21822;SDS011;11074;48.596;9.238;2022-12-13T05:52:53;22.77;;;11.32;;
21822;SDS011;11074;48.596;9.238;2022-12-13T05:55:19;21.58;;;10.43;;
21822;SDS011;11074;48.596;9.238;2022-12-13T05:57:45;18.48;;;10.98;;
21822;SDS011;11074;48.596;9.238;2022-12-13T06:00:10;21.10;;;11.52;;
21822;SDS011;11074;48.596;9.238;2022-12-13T06:02:40;19.92;;;10.35;;
21822;SDS011;11074;48.596;9.238;2022-12-13T06:05:08;21.73;;;10.35;;
21822;SDS011;11074;48.596;9.238;2022-12-13T06:07:36;22.40;;;11.55;;
21822;SDS011;11074;48.596;9.238;2022-12-13T06:10:02;22.38;;;10.73;;
21822;SDS011;11074;48.596;9.238;2022-12-13T06:12:30;20.13;;;10.27;;
21822;SDS011;11074;48.596;9.238;2022-12-13T06:14:58;22.50;;;10.35;;
21822;SDS011;11074;48.596;9.238;2022-12-13T06:17:24;18.75;;;10.55;;
21822;SDS011;11074;48.596;9.238;2022-12-13T06:19:50;24.52;;;10.65;;
21822;SDS011;11074;48.596;9.238;2022-12-13T06:22:16;16.40;;;9.80;;
21822;SDS011;11074;48.596;9.238;2022-12-13T06:24:42;21.23;;;11.25;;
21822;SDS011;11074;48.596;9.238;2022-12-13T06:27:08;22.15;;;11.35;;
21822;SDS011;11074;48.596;9.238;2022-12-13T06:29:34;22.42;;;10.85;;
21822;SDS011;11074;48.596;9.238;2022-12-13T06:32:00;19.80;;;10.02;;
21822;SDS011;11074;48.596;9.238;2022-12-13T06:34:27;18.98;;;10.32;;
21822;SDS011;11074;48.596;9.238;2022-12-13T06:36:54;20.33;;;11.75;;
21822;SDS011;11074;48.596;9.238;2022-12-13T06:39:20;23.92;;;11.75;;
21822;SDS011;11074;48.596;9.238;2022-12-13T06:41:45;21.33;;;11.82;;
21822;SDS011;11074;48.596;9.238;2022-12-13T06:44:11;24.30;;;11.70;;
21822;SDS011;11074;48.596;9.238;2022-12-13T06:46:37;20.75;;;11.65;;
21822;SDS011;11074;48.596;9.238;2022-12-13T06:49:03;22.85;;;11.75;;
21822;SDS011;11074;48.596;9.238;2022-12-13T06:51:29;21.17;;;12.00;;
21822;SDS011;11074;48.596;9.238;2022-12-13T06:53:57;21.83;;;11.82;;
21822;SDS011;11074;48.596;9.238;2022-12-13T06:56:22;24.85;;;12.30;;
21822;SDS011;11074;48.596;9.238;2022-12-13T06:58:48;23.08;;;11.05;;
21822;SDS011;11074;48.596;9.238;2022-12-13T07:01:15;24.65;;;11.65;;
21822;SDS011;11074;48.596;9.238;2022-12-13T07:03:43;19.35;;;10.40;;
21822;SDS011;11074;48.596;9.238;2022-12-13T07:08:41;21.23;;;10.13;;
21822;SDS011;11074;48.596;9.238;2022-12-13T07:11:19;19.10;;;9.90;;
21822;SDS011;11074;48.596;9.238;2022-12-13T07:13:50;19.23;;;10.85;;
21822;SDS011;11074;48.596;9.238;2022-12-13T07:16:17;18.30;;;10.00;;
21822;SDS011;11074;48.596;9.238;2022-12-13T07:18:43;22.02;;;10.05;;
21822;SDS011;11074;48.596;9.238;2022-12-13T07:21:10;23.70;;;10.27;;
21822;SDS011;11074;48.596;9.238;2022-12-13T07:23:38;17.85;;;10.07;;
21822;SDS011;11074;48.596;9.238;2022-12-13T07:26:05;20.95;;;10.07;;
21822;SDS011;11074;48.596;9.238;2022-12-13T07:28:32;22.25;;;10.65;;
21822;SDS011;11074;48.596;9.238;2022-12-13T07:31:00;21.42;;;11.80;;
21822;SDS011;11074;48.596;9.238;2022-12-13T07:33:28;19.30;;;10.65;;
21822;SDS011;11074;48.596;9.238;2022-12-13T07:36:04;22.00;;;11.20;;
21822;SDS011;11074;48.596;9.238;2022-12-13T07:38:42;28.13;;;15.00;;
21822;SDS011;11074;48.596;9.238;2022-12-13T07:41:09;24.33;;;13.43;;
21822;SDS011;11074;48.596;9.238;2022-12-13T07:43:35;25.55;;;12.27;;
21822;SDS011;11074;48.596;9.238;2022-12-13T07:46:02;21.55;;;10.57;;
21822;SDS011;11074;48.596;9.238;2022-12-13T07:48:31;24.50;;;10.57;;
21822;SDS011;11074;48.596;9.238;2022-12-13T07:51:01;23.63;;;11.15;;
21822;SDS011;11074;48.596;9.238;2022-12-13T07:53:31;22.83;;;12.23;;
21822;SDS011;11074;48.596;9.238;2022-12-13T07:56:01;24.05;;;12.20;;
21822;SDS011;11074;48.596;9.238;2022-12-13T07:58:35;28.05;;;12.57;;
21822;SDS011;11074;48.596;9.238;2022-12-13T08:01:06;25.10;;;12.82;;
21822;SDS011;11074;48.596;9.238;2022-12-13T08:03:34;23.27;;;12.45;;
21822;SDS011;11074;48.596;9.238;2022-12-13T08:06:04;22.73;;;11.55;;
21822;SDS011;11074;48.596;9.238;2022-12-13T08:08:33;25.15;;;12.30;;
21822;SDS011;11074;48.596;9.238;2022-12-13T08:11:03;26.02;;;11.98;;
21822;SDS011;11074;48.596;9.238;2022-12-13T08:13:32;19.43;;;9.57;;
21822;SDS011;11074;48.596;9.238;2022-12-13T08:15:59;23.38;;;11.77;;
21822;SDS011;11074;48.596;9.238;2022-12-13T08:18:28;23.30;;;12.45;;
21822;SDS011;11074;48.596;9.238;2022-12-13T08:20:57;25.65;;;12.07;;
21822;SDS011;11074;48.596;9.238;2022-12-13T08:23:24;21.65;;;12.02;;
21822;SDS011;11074;48.596;9.238;2022-12-13T08:25:52;24.70;;;12.00;;
21822;SDS011;11074;48.596;9.238;2022-12-13T08:28:20;24.25;;;12.38;;
21822;SDS011;11074;48.596;9.238;2022-12-13T08:30:48;25.30;;;12.65;;
21822;SDS011;11074;48.596;9.238;2022-12-13T08:33:15;21.95;;;11.85;;
21822;SDS011;11074;48.596;9.238;2022-12-13T08:35:41;22.52;;;12.30;;
21822;SDS011;11074;48.596;9.238;2022-12-13T08:38:07;23.25;;;12.23;;
21822;SDS011;11074;48.596;9.238;2022-12-13T08:40:33;22.77;;;12.32;;
21822;SDS011;11074;48.596;9.238;2022-12-13T08:42:59;20.67;;;10.88;;
21822;SDS011;11074;48.596;9.238;2022-12-13T08:45:26;24.27;;;12.10;;
21822;SDS011;11074;48.596;9.238;2022-12-13T08:47:52;21.50;;;12.07;;
21822;SDS011;11074;48.596;9.238;2022-12-13T08:50:18;25.38;;;13.40;;
21822;SDS011;11074;48.596;9.238;2022-12-13T08:52:44;22.08;;;12.18;;
21822;SDS011;11074;48.596;9.238;2022-12-13T08:55:10;28.05;;;13.02;;
21822;SDS011;11074;48.596;9.238;2022-12-13T08:57:39;27.75;;;13.27;;
21822;SDS011;11074;48.596;9.238;2022-12-13T09:00:07;25.35;;;12.75;;
21822;SDS011;11074;48.596;9.238;2022-12-13T09:02:36;21.95;;;12.43;;
21822;SDS011;11074;48.596;9.238;2022-12-13T09:05:02;24.17;;;12.30;;
21822;SDS011;11074;48.596;9.238;2022-12-13T09:07:28;26.70;;;13.68;;
21822;SDS011;11074;48.596;9.238;2022-12-13T09:09:54;26.35;;;14.20;;
21822;SDS011;11074;48.596;9.238;2022-12-13T09:12:20;23.48;;;13.10;;
21822;SDS011;11074;48.596;9.238;2022-12-13T09:14:45;24.10;;;12.98;;
21822;SDS011;11074;48.596;9.238;2022-12-13T09:17:14;23.10;;;12.68;;
21822;SDS011;11074;48.596;9.238;2022-12-13T09:19:40;26.50;;;13.07;;
21822;SDS011;11074;48.596;9.238;2022-12-13T09:22:06;26.75;;;13.15;;
21822;SDS011;11074;48.596;9.238;2022-12-13T09:24:31;24.63;;;12.75;;
21822;SDS011;11074;48.596;9.238;2022-12-13T09:26:57;22.60;;;12.70;;
21822;SDS011;11074;48.596;9.238;2022-12-13T09:29:23;28.38;;;13.77;;
21822;SDS011;11074;48.596;9.238;2022-12-13T09:31:49;26.38;;;12.80;;
21822;SDS011;11074;48.596;9.238;2022-12-13T09:34:15;26.02;;;13.10;;
21822;SDS011;11074;48.596;9.238;2022-12-13T09:36:41;23.25;;;12.63;;
21822;SDS011;11074;48.596;9.238;2022-12-13T09:39:07;25.58;;;13.88;;
21822;SDS011;11074;48.596;9.238;2022-12-13T09:41:48;22.17;;;13.60;;
21822;SDS011;11074;48.596;9.238;2022-12-13T09:46:48;23.65;;;13.65;;
21822;SDS011;11074;48.596;9.238;2022-12-13T09:49:19;29.83;;;15.23;;
21822;SDS011;11074;48.596;9.238;2022-12-13T09:52:02;30.75;;;15.18;;
21822;SDS011;11074;48.596;9.238;2022-12-13T09:54:31;30.23;;;15.55;;
21822;SDS011;11074;48.596;9.238;2022-12-13T09:56:58;25.13;;;14.63;;
21822;SDS011;11074;48.596;9.238;2022-12-13T09:59:28;27.00;;;14.48;;
21822;SDS011;11074;48.596;9.238;2022-12-13T10:04:50;31.25;;;14.70;;
21822;SDS011;11074;48.596;9.238;2022-12-13T10:07:18;27.25;;;13.88;;
21822;SDS011;11074;48.596;9.238;2022-12-13T10:09:47;29.60;;;13.90;;
21822;SDS011;11074;48.596;9.238;2022-12-13T10:12:23;24.75;;;12.95;;
21822;SDS011;11074;48.596;9.238;2022-12-13T10:14:56;27.00;;;13.35;;
21822;SDS011;11074;48.596;9.238;2022-12-13T10:17:26;26.50;;;14.00;;
21822;SDS011;11074;48.596;9.238;2022-12-13T10:20:00;31.50;;;14.00;;
21822;SDS011;11074;48.596;9.238;2022-12-13T10:22:26;24.90;;;13.07;;
21822;SDS011;11074;48.596;9.238;2022-12-13T10:27:36;26.55;;;14.07;;
21822;SDS011;11074;48.596;9.238;2022-12-13T10:35:19;24.90;;;13.60;;
21822;SDS011;11074;48.596;9.238;2022-12-13T10:37:59;26.42;;;13.25;;
21822;SDS011;11074;48.596;9.238;2022-12-13T10:40:44;23.98;;;12.95;;
21822;SDS011;11074;48.596;9.238;2022-12-13T10:43:17;27.42;;;13.57;;
21822;SDS011;11074;48.596;9.238;2022-12-13T10:48:36;24.05;;;12.40;;
21822;SDS011;11074;48.596;9.238;2022-12-13T10:51:11;23.83;;;13.10;;
21822;SDS011;11074;48.596;9.238;2022-12-13T10:53:51;27.52;;;12.48;;
21822;SDS011;11074;48.596;9.238;2022-12-13T10:56:32;27.38;;;12.90;;
21822;SDS011;11074;48.596;9.238;2022-12-13T11:01:42;27.15;;;12.85;;
21822;SDS011;11074;48.596;9.238;2022-12-13T11:06:59;26.83;;;13.02;;
21822;SDS011;11074;48.596;9.238;2022-12-13T11:09:47;24.45;;;12.55;;
21822;SDS011;11074;48.596;9.238;2022-12-13T11:12:13;25.92;;;12.18;;
21822;SDS011;11074;48.596;9.238;2022-12-13T11:14:59;25.33;;;11.27;;
21822;SDS011;11074;48.596;9.238;2022-12-13T11:17:30;28.00;;;12.07;;
21822;SDS011;11074;48.596;9.238;2022-12-13T11:20:04;24.08;;;12.60;;
21822;SDS011;11074;48.596;9.238;2022-12-13T11:22:39;25.77;;;11.98;;
21822;SDS011;11074;48.596;9.238;2022-12-13T11:25:17;24.45;;;12.30;;
21822;SDS011;11074;48.596;9.238;2022-12-13T11:27:56;24.17;;;11.98;;
21822;SDS011;11074;48.596;9.238;2022-12-13T11:31:09;22.75;;;11.57;;
21822;SDS011;11074;48.596;9.238;2022-12-13T11:34:14;23.85;;;12.07;;
21822;SDS011;11074;48.596;9.238;2022-12-13T11:40:36;24.55;;;12.38;;
21822;SDS011;11074;48.596;9.238;2022-12-13T11:46:04;23.85;;;12.18;;
21822;SDS011;11074;48.596;9.238;2022-12-13T11:48:55;23.33;;;10.95;;
21822;SDS011;11074;48.596;9.238;2022-12-13T11:51:27;26.27;;;11.25;;
21822;SDS011;11074;48.596;9.238;2022-12-13T11:54:33;21.00;;;10.50;;
21822;SDS011;11074;48.596;9.238;2022-12-13T11:57:24;19.13;;;9.60;;
21822;SDS011;11074;48.596;9.238;2022-12-13T12:00:04;21.38;;;9.68;;
21822;SDS011;11074;48.596;9.238;2022-12-13T12:02:50;19.50;;;9.38;;
21822;SDS011;11074;48.596;9.238;2022-12-13T12:05:32;23.88;;;9.77;;
21822;SDS011;11074;48.596;9.238;2022-12-13T12:10:44;18.27;;;8.05;;
21822;SDS011;11074;48.596;9.238;2022-12-13T12:18:38;15.45;;;7.53;;
21822;SDS011;11074;48.596;9.238;2022-12-13T12:26:39;17.58;;;7.97;;
21822;SDS011;11074;48.596;9.238;2022-12-13T12:32:07;12.80;;;6.57;;
21822;SDS011;11074;48.596;9.238;2022-12-13T12:34:55;12.88;;;6.93;;
21822;SDS011;11074;48.596;9.238;2022-12-13T12:54:54;14.95;;;8.05;;
21822;SDS011;11074;48.596;9.238;2022-12-13T12:58:45;20.65;;;11.00;;
21822;SDS011;11074;48.596;9.238;2022-12-13T13:04:07;14.65;;;7.40;;
21822;SDS011;11074;48.596;9.238;2022-12-13T13:06:42;14.82;;;7.25;;
21822;SDS011;11074;48.596;9.238;2022-12-13T13:09:15;11.80;;;6.88;;
21822;SDS011;11074;48.596;9.238;2022-12-13T13:11:43;12.32;;;6.47;;
21822;SDS011;11074;48.596;9.238;2022-12-13T13:22:44;11.30;;;6.28;;
21822;SDS011;11074;48.596;9.238;2022-12-13T13:25:29;14.43;;;8.15;;
21822;SDS011;11074;48.596;9.238;2022-12-13T13:28:02;14.80;;;7.93;;
21822;SDS011;11074;48.596;9.238;2022-12-13T13:31:00;15.48;;;7.28;;
21822;SDS011;11074;48.596;9.238;2022-12-13T13:33:44;21.33;;;8.15;;
21822;SDS011;11074;48.596;9.238;2022-12-13T13:39:15;14.48;;;6.65;;
21822;SDS011;11074;48.596;9.238;2022-12-13T13:47:13;13.88;;;7.15;;
21822;SDS011;11074;48.596;9.238;2022-12-13T13:55:42;14.05;;;7.82;;
21822;SDS011;11074;48.596;9.238;2022-12-13T13:58:34;13.43;;;6.88;;
21822;SDS011;11074;48.596;9.238;2022-12-13T14:27:08;49.22;;;16.70;;
21822;SDS011;11074;48.596;9.238;2022-12-13T14:29:17;34.97;;;13.93;;
21822;SDS011;11074;48.596;9.238;2022-12-13T14:31:55;20.05;;;9.50;;
21822;SDS011;11074;48.596;9.238;2022-12-13T14:34:26;19.08;;;9.43;;
21822;SDS011;11074;48.596;9.238;2022-12-13T14:36:55;15.18;;;8.63;;
21822;SDS011;11074;48.596;9.238;2022-12-13T14:39:22;20.10;;;9.05;;
21822;SDS011;11074;48.596;9.238;2022-12-13T14:41:53;33.95;;;16.58;;
21822;SDS011;11074;48.596;9.238;2022-12-13T14:44:23;28.25;;;14.00;;
21822;SDS011;11074;48.596;9.238;2022-12-13T14:46:55;39.22;;;17.95;;
21822;SDS011;11074;48.596;9.238;2022-12-13T14:49:30;26.67;;;12.85;;
21822;SDS011;11074;48.596;9.238;2022-12-13T14:54:52;22.85;;;10.73;;
21822;SDS011;11074;48.596;9.238;2022-12-13T14:57:28;25.17;;;11.15;;
21822;SDS011;11074;48.596;9.238;2022-12-13T14:59:57;25.38;;;11.38;;
21822;SDS011;11074;48.596;9.238;2022-12-13T15:02:27;27.40;;;12.68;;
21822;SDS011;11074;48.596;9.238;2022-12-13T15:04:59;23.35;;;8.75;;
21822;SDS011;11074;48.596;9.238;2022-12-13T15:07:30;20.92;;;10.85;;
21822;SDS011;11074;48.596;9.238;2022-12-13T15:10:05;21.23;;;10.15;;
21822;SDS011;11074;48.596;9.238;2022-12-13T15:12:55;18.55;;;9.88;;
21822;SDS011;11074;48.596;9.238;2022-12-13T15:15:23;19.73;;;11.38;;
21822;SDS011;11074;48.596;9.238;2022-12-13T15:17:49;15.52;;;8.52;;
21822;SDS011;11074;48.596;9.238;2022-12-13T15:20:50;15.68;;;8.13;;
21822;SDS011;11074;48.596;9.238;2022-12-13T15:25:59;14.63;;;8.52;;
21822;SDS011;11074;48.596;9.238;2022-12-13T15:28:34;15.95;;;8.27;;
21822;SDS011;11074;48.596;9.238;2022-12-13T15:31:04;16.63;;;8.77;;
21822;SDS011;11074;48.596;9.238;2022-12-13T15:33:31;15.00;;;8.50;;
21822;SDS011;11074;48.596;9.238;2022-12-13T15:41:19;16.52;;;7.90;;
21822;SDS011;11074;48.596;9.238;2022-12-13T15:43:51;19.27;;;9.00;;
21822;SDS011;11074;48.596;9.238;2022-12-13T15:46:22;15.88;;;8.70;;
21822;SDS011;11074;48.596;9.238;2022-12-13T15:48:58;13.77;;;7.60;;
21822;SDS011;11074;48.596;9.238;2022-12-13T15:51:26;14.40;;;8.10;;
21822;SDS011;11074;48.596;9.238;2022-12-13T15:54:16;13.80;;;7.57;;
21822;SDS011;11074;48.596;9.238;2022-12-13T15:59:38;15.18;;;7.80;;
21822;SDS011;11074;48.596;9.238;2022-12-13T16:02:11;14.85;;;7.28;;
21822;SDS011;11074;48.596;9.238;2022-12-13T16:04:46;17.15;;;7.18;;
21822;SDS011;11074;48.596;9.238;2022-12-13T16:07:47;15.75;;;7.25;;
21822;SDS011;11074;48.596;9.238;2022-12-13T16:10:05;15.40;;;7.20;;
21822;SDS011;11074;48.596;9.238;2022-12-13T16:12:41;14.02;;;7.35;;
21822;SDS011;11074;48.596;9.238;2022-12-13T16:15:20;16.10;;;8.10;;
21822;SDS011;11074;48.596;9.238;2022-12-13T16:17:54;16.77;;;7.82;;
21822;SDS011;11074;48.596;9.238;2022-12-13T16:20:36;13.10;;;7.30;;
21822;SDS011;11074;48.596;9.238;2022-12-13T16:23:01;13.18;;;6.95;;
21822;SDS011;11074;48.596;9.238;2022-12-13T16:25:28;14.05;;;7.78;;
21822;SDS011;11074;48.596;9.238;2022-12-13T16:27:54;15.77;;;7.57;;
21822;SDS011;11074;48.596;9.238;2022-12-13T16:30:26;16.70;;;8.25;;
21822;SDS011;11074;48.596;9.238;2022-12-13T16:33:18;14.13;;;7.45;;
21822;SDS011;11074;48.596;9.238;2022-12-13T16:35:45;12.63;;;6.82;;
21822;SDS011;11074;48.596;9.238;2022-12-13T16:38:13;13.93;;;7.13;;
21822;SDS011;11074;48.596;9.238;2022-12-13T16:40:40;14.43;;;7.30;;
21822;SDS011;11074;48.596;9.238;2022-12-13T16:43:13;15.40;;;7.35;;
21822;SDS011;11074;48.596;9.238;2022-12-13T16:45:43;18.20;;;8.48;;
21822;SDS011;11074;48.596;9.238;2022-12-13T16:48:14;16.42;;;7.72;;
21822;SDS011;11074;48.596;9.238;2022-12-13T16:50:40;16.88;;;8.25;;
21822;SDS011;11074;48.596;9.238;2022-12-13T16:53:09;13.95;;;7.05;;
21822;SDS011;11074;48.596;9.238;2022-12-13T16:55:35;14.60;;;7.95;;
21822;SDS011;11074;48.596;9.238;2022-12-13T16:58:02;14.43;;;7.93;;
21822;SDS011;11074;48.596;9.238;2022-12-13T17:00:31;14.20;;;7.60;;
21822;SDS011;11074;48.596;9.238;2022-12-13T17:02:57;18.13;;;8.48;;
21822;SDS011;11074;48.596;9.238;2022-12-13T17:05:25;13.48;;;7.03;;
21822;SDS011;11074;48.596;9.238;2022-12-13T17:07:53;14.80;;;7.75;;
21822;SDS011;11074;48.596;9.238;2022-12-13T17:10:20;14.93;;;7.78;;
21822;SDS011;11074;48.596;9.238;2022-12-13T17:12:47;14.07;;;7.80;;
21822;SDS011;11074;48.596;9.238;2022-12-13T17:15:13;15.73;;;7.80;;
21822;SDS011;11074;48.596;9.238;2022-12-13T17:17:40;17.05;;;8.63;;
21822;SDS011;11074;48.596;9.238;2022-12-13T17:20:09;14.27;;;7.90;;